Time;durP1;ratioP1;P1;durP2;ratioP2;P2;SDS_P1;SDS_P2;PMS_P1;PMS_P2;Temp;Humidity;BMP_temperature;BMP_pressure;BME280_temperature;BME280_humidity;BME280_pressure;Samples;Min_cycle;Max_cycle;Signal;HPM_P1;HPM_P2
2023/08/22 00:00:32;;;;;;;0.30;0.30;;;31.30;59.10;;;32.14;43.00;95361.69;4996450;28;20306;-30
2023/08/22 00:02:59;;;;;;;0.20;0.20;;;31.30;59.20;;;32.15;42.69;95371.44;4995780;28;20572;-30
2023/08/22 00:05:27;;;;;;;0.20;0.20;;;31.30;59.20;;;32.14;43.27;95373.38;4994722;28;20195;-31
2023/08/22 00:07:54;;;;;;;0.30;0.30;;;31.30;59.20;;;32.13;43.35;95374.47;4995625;28;20226;-31
2023/08/22 00:10:21;;;;;;;0.20;0.20;;;31.30;59.30;;;32.12;43.26;95375.59;4995622;28;20338;-31
2023/08/22 00:12:49;;;;;;;0.30;0.30;;;31.30;59.30;;;32.12;42.87;95380.19;4996517;28;20229;-33
2023/08/22 00:15:17;;;;;;;0.38;0.38;;;31.30;59.40;;;32.11;42.92;95378.63;4995992;28;20196;-31
2023/08/22 00:17:45;;;;;;;0.30;0.30;;;31.30;59.30;;;32.09;43.15;95376.22;4996122;28;20222;-30
2023/08/22 00:20:13;;;;;;;0.30;0.30;;;31.30;59.40;;;32.07;43.42;95379.25;4995695;28;20235;-30
2023/08/22 00:22:41;;;;;;;0.20;0.20;;;31.30;59.40;;;32.08;43.03;95380.06;4995390;28;20289;-29
2023/08/22 00:25:09;;;;;;;0.20;0.20;;;31.20;59.30;;;32.07;43.64;95384.69;4995453;28;20554;-30
2023/08/22 00:27:37;;;;;;;0.20;0.20;;;31.30;59.40;;;32.06;42.79;95380.38;4995278;28;20200;-30
2023/08/22 00:30:07;;;;;;;0.20;0.20;;;31.20;60.40;;;32.05;43.47;95372.56;4995128;28;20580;-31
2023/08/22 00:32:34;;;;;;;0.20;0.20;;;31.20;59.40;;;32.05;43.34;95376.06;4994255;28;20295;-30
2023/08/22 00:35:01;;;;;;;0.40;0.40;;;31.20;59.40;;;32.04;43.52;95373.66;5010416;28;20249;-29
2023/08/22 00:37:28;;;;;;;0.20;0.20;;;31.20;59.50;;;32.03;43.09;95375.59;4995148;28;20727;-32
2023/08/22 00:39:55;;;;;;;0.30;0.30;;;31.20;59.40;;;32.02;43.34;95375.88;4995629;28;20625;-32
2023/08/22 00:42:22;;;;;;;0.20;0.20;;;31.20;59.50;;;32.01;43.73;95375.09;5010252;28;20225;-30
2023/08/22 00:44:50;;;;;;;0.30;0.30;;;31.20;59.50;;;32.00;43.01;95378.94;4995049;28;20700;-30
2023/08/22 00:47:17;;;;;;;0.30;0.30;;;31.20;59.50;;;31.99;43.30;95371.91;4995760;28;20217;-30
2023/08/22 00:49:45;;;;;;;0.30;0.30;;;31.20;59.50;;;31.98;43.43;95375.72;4994025;28;20257;-30
2023/08/22 00:52:12;;;;;;;0.30;0.30;;;31.20;59.60;;;31.99;43.58;95376.53;4993035;28;20235;-31
2023/08/22 00:54:41;;;;;;;0.30;0.30;;;31.20;59.60;;;31.98;43.20;95377.66;4994856;28;20506;-30
2023/08/22 00:57:08;;;;;;;0.20;0.20;;;31.10;59.60;;;31.97;43.40;95379.59;4994827;28;20283;-30
2023/08/22 00:59:37;;;;;;;0.30;0.30;;;31.10;60.60;;;31.96;43.42;95377.16;5010455;28;20195;-31
2023/08/22 01:02:07;;;;;;;0.40;0.40;;;31.10;59.70;;;31.94;43.63;95377.50;4993753;28;20618;-31
2023/08/22 01:04:34;;;;;;;0.20;0.20;;;31.10;59.60;;;31.94;43.23;95385.63;5079453;28;20602;-29
2023/08/22 01:07:19;;;;;;;0.28;0.28;;;31.10;59.60;;;31.92;43.30;95383.25;5079582;28;20238;-31
2023/08/22 01:10:02;;;;;;;0.20;0.20;;;31.10;59.80;;;31.89;43.73;95380.38;4995213;28;20212;-31
2023/08/22 01:12:41;;;;;;;0.30;0.30;;;31.10;59.70;;;31.88;43.64;95374.13;5062565;28;20598;-30
2023/08/22 01:15:26;;;;;;;0.30;0.30;;;31.10;59.70;;;31.86;43.42;95376.38;4977661;28;20611;-30
2023/08/22 01:18:01;;;;;;;0.30;0.30;;;31.10;59.70;;;31.87;43.69;95375.25;4994755;28;20214;-31
2023/08/22 01:20:28;;;;;;;0.20;0.20;;;31.10;59.80;;;31.85;43.27;95374.78;4993928;28;20253;-31
2023/08/22 01:22:56;;;;;;;0.25;0.25;;;31.00;59.70;;;31.84;43.81;95365.03;4994571;28;20193;-31
2023/08/22 01:25:25;;;;;;;0.20;0.20;;;31.10;59.80;;;31.85;43.61;95363.09;5079026;28;20307;-31
2023/08/22 01:28:12;;;;;;;0.20;0.20;;;31.00;59.80;;;31.84;43.99;95365.03;5010022;28;20230;-29
2023/08/22 01:31:23;;;;;;;0.30;0.30;;;31.00;59.90;;;31.79;44.01;95367.91;5010231;28;20200;-30
2023/08/22 01:34:04;;;;;;;0.30;0.30;;;31.00;59.80;;;31.78;43.80;95363.59;4994248;28;20210;-29
2023/08/22 01:36:31;;;;;;;0.30;0.30;;;31.00;59.90;;;31.77;43.87;95362.81;5009739;28;20567;-30
2023/08/22 01:39:04;;;;;;;0.20;0.20;;;31.00;59.90;;;31.77;43.20;95354.66;4994393;28;20239;-30
2023/08/22 01:41:31;;;;;;;0.20;0.20;;;31.00;59.90;;;31.76;43.73;95344.94;4993284;28;20248;-31
2023/08/22 01:43:58;;;;;;;0.30;0.30;;;31.00;59.90;;;31.76;43.71;95350.34;4993969;28;20211;-30
2023/08/22 01:46:26;;;;;;;0.30;0.30;;;31.00;60.00;;;31.76;43.86;95357.66;5009573;28;20206;-31
2023/08/22 01:48:53;;;;;;;0.30;0.30;;;31.00;60.90;;;31.75;43.53;95356.06;5009461;28;20214;-30
2023/08/22 01:51:20;;;;;;;0.22;0.22;;;31.00;60.00;;;31.74;43.99;95358.00;4994042;28;20273;-31
2023/08/22 01:53:47;;;;;;;0.30;0.30;;;31.00;60.00;;;31.74;44.12;95358.00;4993869;28;20227;-31
2023/08/22 01:56:15;;;;;;;0.30;0.30;;;31.00;60.10;;;31.74;43.64;95346.38;4993913;28;20198;-31
2023/08/22 01:58:42;;;;;;;0.28;0.28;;;31.00;60.00;;;31.72;44.16;95352.09;4992979;28;20204;-30
2023/08/22 02:01:13;;;;;;;0.30;0.30;;;31.00;60.10;;;31.72;43.88;95348.59;5009577;28;20595;-30
2023/08/22 02:03:41;;;;;;;0.30;0.30;;;30.90;60.00;;;31.71;43.75;95349.69;5078047;28;20219;-30
2023/08/22 02:06:09;;;;;;;0.22;0.22;;;30.90;60.00;;;31.70;44.06;95342.66;4993820;28;20644;-31
2023/08/22 02:08:38;;;;;;;0.30;0.30;;;30.90;60.10;;;31.69;44.04;95350.03;4993768;28;20291;-30
2023/08/22 02:11:06;;;;;;;0.30;0.30;;;30.90;60.00;;;31.69;43.78;95351.91;4994005;28;20633;-30
2023/08/22 02:13:33;;;;;;;0.22;0.22;;;30.90;60.00;;;31.67;43.82;95348.75;4993860;28;20214;-31
2023/08/22 02:16:00;;;;;;;0.22;0.22;;;30.90;60.10;;;31.67;43.96;95343.31;5078147;28;20331;-32
2023/08/22 02:18:28;;;;;;;0.22;0.22;;;30.90;60.10;;;31.66;44.19;95349.84;4992934;28;20754;-31
2023/08/22 02:20:57;;;;;;;0.20;0.20;;;30.90;60.20;;;31.66;43.82;95353.34;4993599;28;20206;-32
2023/08/22 02:23:26;;;;;;;0.30;0.30;;;30.90;60.20;;;31.66;44.29;95349.84;4993408;28;20263;-30
2023/08/22 02:25:53;;;;;;;0.20;0.20;;;30.90;60.10;;;31.64;43.86;95344.72;4993826;28;20203;-32
2023/08/22 02:28:20;;;;;;;0.30;0.30;;;30.90;60.10;;;31.63;44.03;95340.41;4993847;28;20204;-30
2023/08/22 02:30:47;;;;;;;0.30;0.30;;;30.90;60.20;;;31.62;43.84;95336.88;4994041;28;20244;-32
2023/08/22 02:33:14;;;;;;;0.30;0.30;;;30.80;60.20;;;31.61;44.45;95338.00;5008989;28;20230;-30
2023/08/22 02:35:41;;;;;;;0.20;0.20;;;30.90;60.20;;;31.61;44.08;95337.22;4993633;28;20286;-32
2023/08/22 02:38:08;;;;;;;0.20;0.20;;;30.80;60.20;;;31.61;43.91;95337.22;4993578;28;20217;-30
2023/08/22 02:40:35;;;;;;;0.30;0.30;;;30.80;60.20;;;31.60;44.26;95332.91;5008742;28;20287;-32
2023/08/22 02:43:03;;;;;;;0.30;0.30;;;30.80;60.20;;;31.58;43.99;95335.16;5008491;28;20201;-31
2023/08/22 02:45:30;;;;;;;0.30;0.30;;;30.80;60.20;;;31.58;44.20;95332.44;4993791;28;20219;-30
2023/08/22 02:47:57;;;;;;;0.30;0.30;;;30.80;60.30;;;31.57;44.65;95339.75;4993472;28;20524;-30
2023/08/22 02:50:24;;;;;;;0.20;0.20;;;30.80;60.20;;;31.56;44.22;95340.88;4993148;28;20672;-31
2023/08/22 02:52:51;;;;;;;0.32;0.32;;;30.80;60.20;;;31.55;44.53;95344.69;5077385;28;20607;-32
2023/08/22 02:55:19;;;;;;;0.30;0.30;;;30.80;60.30;;;31.55;44.53;95346.59;5077306;28;20213;-29
2023/08/22 02:57:46;;;;;;;0.20;0.20;;;30.80;60.30;;;31.53;44.71;95341.50;5008301;28;20746;-32
2023/08/22 03:00:14;;;;;;;0.30;0.30;;;30.80;60.30;;;31.53;44.49;95340.69;5077441;28;20217;-34
2023/08/22 03:02:41;;;;;;;0.30;0.30;;;30.80;60.30;;;31.51;44.40;95335.59;5008375;28;20298;-31
2023/08/22 03:05:13;;;;;;;0.20;0.20;;;30.80;60.30;;;31.51;44.25;95332.88;4991748;28;20289;-31
2023/08/22 03:07:42;;;;;;;0.30;0.30;;;30.80;60.40;;;31.51;44.85;95334.81;5008326;28;20291;-28
2023/08/22 03:10:12;;;;;;;0.30;0.30;;;30.80;60.40;;;31.49;44.63;95332.41;5008463;28;20705;-28
2023/08/22 03:12:39;;;;;;;0.30;0.30;;;30.80;60.50;;;31.49;44.25;95331.59;5077334;28;20291;-32
2023/08/22 03:15:07;;;;;;;0.20;0.20;;;30.80;60.40;;;31.48;44.13;95330.00;5007938;28;20207;-30
2023/08/22 03:17:39;;;;;;;0.30;0.30;;;30.80;60.30;;;31.46;44.85;95330.34;5008189;28;20625;-30
2023/08/22 03:20:08;;;;;;;0.30;0.30;;;30.80;60.50;;;31.44;44.71;95333.38;5008672;28;20201;-31
2023/08/22 03:22:35;;;;;;;0.20;0.20;;;30.80;60.50;;;31.44;44.36;95337.97;5077572;28;20202;-31
2023/08/22 03:25:03;;;;;;;0.20;0.20;;;30.80;60.50;;;31.43;44.36;95333.66;4991980;28;20208;-29
2023/08/22 03:27:33;;;;;;;0.40;0.40;;;30.80;60.50;;;31.42;44.71;95330.16;5008035;28;20213;-28
2023/08/22 03:30:04;;;;;;;0.30;0.30;;;30.80;60.60;;;31.42;44.87;95335.59;4992981;28;20200;-28
2023/08/22 03:32:34;;;;;;;0.20;0.20;;;30.70;60.50;;;31.40;44.72;95337.03;5077206;28;20214;-28
2023/08/22 03:35:03;;;;;;;0.28;0.28;;;30.70;60.50;;;31.39;44.85;95338.91;4991662;28;20276;-29
2023/08/22 03:37:32;;;;;;;0.30;0.30;;;30.70;60.50;;;31.40;44.88;95337.03;4991648;28;20232;-30
2023/08/22 03:39:59;;;;;;;0.32;0.32;;;30.70;60.50;;;31.39;44.49;95336.19;5078115;28;20232;-29
2023/08/22 03:42:26;;;;;;;0.30;0.30;;;30.70;60.60;;;31.38;44.79;95339.25;4991643;28;20580;-29
2023/08/22 03:44:57;;;;;;;0.30;0.30;;;30.70;60.60;;;31.37;44.51;95340.34;4991463;28;20707;-29
2023/08/22 03:47:24;;;;;;;0.30;0.30;;;30.70;60.60;;;31.37;44.88;95345.75;5007975;28;20199;-30
2023/08/22 03:49:53;;;;;;;0.30;0.30;;;30.70;60.60;;;31.34;44.93;95336.34;4992669;28;20272;-29
2023/08/22 03:52:22;;;;;;;0.20;0.20;;;30.70;60.60;;;31.34;44.88;95343.69;5008040;28;20214;-28
2023/08/22 03:54:49;;;;;;;0.20;0.20;;;30.70;60.70;;;31.33;44.91;95342.88;5008024;28;20204;-30
2023/08/22 03:57:18;;;;;;;0.40;0.40;;;30.70;60.60;;;31.33;45.23;95339.38;4991566;28;20268;-29
2023/08/22 03:59:47;;;;;;;0.32;0.32;;;30.70;60.70;;;31.33;44.75;95344.81;5007739;28;20288;-28
2023/08/22 04:02:15;;;;;;;0.30;0.30;;;30.70;60.70;;;31.30;44.75;95341.59;5007857;28;20211;-28
2023/08/22 04:04:42;;;;;;;0.40;0.40;;;30.60;60.60;;;31.30;44.77;95347.03;5007500;28;20202;-28
2023/08/22 04:07:09;;;;;;;0.30;0.30;;;30.60;60.60;;;31.30;45.04;95347.03;4991292;28;20203;-28
2023/08/22 04:09:36;;;;;;;0.20;0.20;;;30.60;60.60;;;31.30;45.13;95346.25;4992174;28;20210;-28
2023/08/22 04:12:04;;;;;;;0.30;0.30;;;30.60;60.70;;;31.29;45.08;95344.63;4992900;28;20219;-30
2023/08/22 04:14:31;;;;;;;0.20;0.20;;;30.60;60.70;;;31.27;44.71;95338.72;4992628;28;20601;-28
2023/08/22 04:16:58;;;;;;;0.40;0.40;;;30.60;60.70;;;31.28;44.66;95340.31;5076689;28;20284;-29
2023/08/22 04:19:25;;;;;;;0.20;0.20;;;30.60;60.80;;;31.26;44.75;95339.81;5076700;28;20197;-28
2023/08/22 04:21:52;;;;;;;0.20;0.20;;;30.60;60.80;;;31.26;45.15;95337.13;4992587;28;20199;-29
2023/08/22 04:24:19;;;;;;;0.20;0.20;;;30.60;60.80;;;31.25;45.00;95333.63;4992013;28;20630;-28
2023/08/22 04:26:47;;;;;;;0.30;0.30;;;30.60;60.80;;;31.24;44.88;95337.44;4992601;28;20635;-29
2023/08/22 04:29:15;;;;;;;0.40;0.40;;;30.60;60.90;;;31.25;45.30;95332.81;4994976;28;20190;-29
2023/08/22 04:31:43;;;;;;;0.28;0.28;;;30.60;60.80;;;31.24;45.47;95331.25;4994299;28;20199;-29
2023/08/22 04:34:11;;;;;;;0.22;0.22;;;30.60;60.90;;;31.23;44.89;95330.41;4994286;28;20582;-29
2023/08/22 04:36:46;;;;;;;0.40;0.40;;;30.60;60.80;;;31.22;45.63;95333.44;5080526;28;20194;-29
2023/08/22 04:39:13;;;;;;;0.20;0.20;;;30.60;60.90;;;31.22;45.51;95336.16;4995444;28;20195;-29
2023/08/22 04:41:41;;;;;;;0.30;0.30;;;30.60;60.90;;;31.21;44.92;95329.94;4994470;28;20202;-28
2023/08/22 04:44:17;;;;;;;0.28;0.28;;;30.50;60.90;;;31.20;45.44;95322.94;5079671;28;20206;-28
2023/08/22 04:46:44;;;;;;;0.30;0.30;;;30.60;61.00;;;31.19;45.00;95329.47;4995248;28;20197;-28
2023/08/22 04:49:11;;;;;;;0.30;0.30;;;30.60;60.90;;;31.18;45.22;95330.56;5079651;28;20272;-30
2023/08/22 04:51:38;;;;;;;0.30;0.30;;;30.60;60.90;;;31.17;45.07;95328.97;4995500;28;20232;-28
2023/08/22 04:54:05;;;;;;;0.30;0.30;;;30.60;61.00;;;31.18;45.15;95322.44;5010110;28;20194;-28
2023/08/22 04:56:32;;;;;;;0.30;0.30;;;30.60;61.00;;;31.17;45.13;95328.97;5079576;28;20206;-28
2023/08/22 04:58:59;;;;;;;0.20;0.20;;;30.60;61.00;;;31.17;45.09;95323.56;5010154;28;20285;-31
2023/08/22 05:01:27;;;;;;;0.20;0.20;;;30.50;61.00;;;31.18;44.88;95324.38;4993858;28;20194;-29
2023/08/22 05:03:57;;;;;;;0.20;0.20;;;30.60;61.10;;;31.17;45.67;95328.97;5010360;28;20643;-29
2023/08/22 05:06:24;;;;;;;0.30;0.30;;;30.50;61.00;;;31.16;45.82;95332.78;5079251;28;20664;-28
2023/08/22 05:08:52;;;;;;;0.30;0.30;;;30.50;61.00;;;31.16;45.15;95335.50;5010059;28;20213;-28
2023/08/22 05:11:19;;;;;;;0.20;0.20;;;30.50;61.10;;;31.17;45.29;95330.91;5010058;28;20203;-31
2023/08/22 05:13:46;;;;;;;0.30;0.30;;;30.60;61.10;;;31.16;45.15;95329.28;5079177;28;20242;-30
2023/08/22 05:16:13;;;;;;;0.35;0.35;;;30.60;61.00;;;31.16;45.17;95323.88;5009659;28;20240;-29
2023/08/22 05:18:40;;;;;;;0.40;0.40;;;30.50;61.10;;;31.17;45.70;95320.06;4994508;28;20275;-35
2023/08/22 05:21:07;;;;;;;0.30;0.30;;;30.50;61.10;;;31.17;45.63;95325.47;5009912;28;20203;-29
2023/08/22 05:23:35;;;;;;;0.30;0.30;;;30.50;61.20;;;31.16;45.64;95319.25;4993512;28;20194;-31
2023/08/22 05:26:03;;;;;;;0.30;0.30;;;30.50;61.10;;;31.16;45.97;95324.66;4994349;28;20270;-30
2023/08/22 05:28:30;;;;;;;0.35;0.35;;;30.60;61.20;;;31.17;45.68;95320.06;5009807;28;20207;-29
2023/08/22 05:30:57;;;;;;;0.30;0.30;;;30.50;61.20;;;31.17;45.15;95320.06;5009870;28;20282;-29
2023/08/22 05:33:30;;;;;;;0.30;0.30;;;30.50;61.20;;;31.16;45.91;95321.94;5010260;28;20232;-29
2023/08/22 05:35:57;;;;;;;0.30;0.30;;;30.60;61.30;;;31.16;45.43;95324.66;5009904;28;20250;-29
2023/08/22 05:38:24;;;;;;;0.40;0.40;;;30.60;61.20;;;31.16;45.34;95321.94;4993773;28;20691;-30
2023/08/22 05:40:51;;;;;;;0.30;0.30;;;30.60;61.30;;;31.17;45.22;95328.19;5078557;28;20541;-28
2023/08/22 05:43:18;;;;;;;0.30;0.30;;;30.60;61.30;;;31.17;45.84;95322.75;4994210;28;20193;-28
2023/08/22 05:45:46;;;;;;;0.30;0.30;;;30.60;61.30;;;31.17;45.99;95325.47;4993159;28;20197;-30
2023/08/22 05:48:14;;;;;;;0.30;0.30;;;30.60;61.30;;;31.17;45.81;95325.47;5009535;28;20207;-31
2023/08/22 05:50:41;;;;;;;0.22;0.22;;;30.60;61.30;;;31.17;45.79;95322.75;5078565;28;20204;-28
2023/08/22 05:53:08;;;;;;;0.30;0.30;;;30.60;61.30;;;31.18;45.96;95324.38;4993743;28;20293;-30
2023/08/22 05:55:36;;;;;;;0.30;0.30;;;30.60;61.30;;;31.17;45.40;95323.56;5009196;28;20706;-28
2023/08/22 05:58:05;;;;;;;0.20;0.20;;;30.60;61.40;;;31.18;45.96;95330.56;5078343;28;20222;-29
2023/08/22 06:00:32;;;;;;;0.30;0.30;;;30.60;61.40;;;31.18;45.42;95335.19;4977009;28;20202;-28
2023/08/22 06:02:59;;;;;;;0.30;0.30;;;30.60;61.40;;;31.19;46.12;95334.06;5009278;28;20653;-29
2023/08/22 06:05:27;;;;;;;0.30;0.30;;;30.60;61.40;;;31.18;45.73;95327.06;5009106;28;20255;-31
2023/08/22 06:07:55;;;;;;;0.22;0.22;;;30.60;61.30;;;31.19;46.21;95332.16;4992885;28;20210;-29
2023/08/22 06:10:24;;;;;;;0.20;0.20;;;30.60;61.40;;;31.19;45.49;95325.94;5010041;28;20205;-28
2023/08/22 06:12:52;;;;;;;0.30;0.30;;;30.60;61.40;;;31.20;45.92;95331.06;4992910;28;20267;-29
2023/08/22 06:15:19;;;;;;;0.20;0.20;;;30.50;61.30;;;31.19;45.59;95326.75;5009263;28;20211;-33
2023/08/22 06:17:46;;;;;;;0.30;0.30;;;30.60;62.40;;;31.20;45.60;95328.34;4993017;28;20226;-29
2023/08/22 06:20:15;;;;;;;0.30;0.30;;;30.60;61.40;;;31.20;46.14;95332.97;5009656;28;20263;-29
2023/08/22 06:22:43;;;;;;;0.30;0.30;;;30.60;61.50;;;31.21;45.83;95331.84;4994298;28;20252;-33
2023/08/22 06:25:10;;;;;;;0.28;0.28;;;30.60;62.40;;;31.22;45.89;95330.75;4994138;28;20331;-31
2023/08/22 06:27:37;;;;;;;0.30;0.30;;;30.60;61.50;;;31.22;46.01;95333.44;4993950;28;20205;-34
2023/08/22 06:30:07;;;;;;;0.30;0.30;;;30.60;61.50;;;31.23;45.75;95337.75;4992519;28;20358;-31
2023/08/22 06:32:36;;;;;;;0.30;0.30;;;30.60;61.40;;;31.23;46.29;95329.63;5010017;28;20547;-29
2023/08/22 06:35:04;;;;;;;0.30;0.30;;;30.60;61.50;;;31.24;46.01;95328.53;4994451;28;20523;-31
2023/08/22 06:37:31;;;;;;;0.30;0.30;;;30.60;61.50;;;31.24;46.02;95326.59;5077590;28;20302;-32
2023/08/22 06:39:58;;;;;;;0.20;0.20;;;30.60;61.60;;;31.25;46.40;95330.09;5077540;28;20193;-31
2023/08/22 06:42:26;;;;;;;0.20;0.20;;;30.60;61.50;;;31.26;46.19;95326.28;4992337;28;20535;-33
2023/08/22 06:44:53;;;;;;;0.30;0.30;;;30.60;61.50;;;31.26;46.09;95329.81;4992231;28;20206;-29
2023/08/22 06:47:24;;;;;;;0.30;0.30;;;30.60;61.60;;;31.26;45.96;95327.09;4993281;28;20687;-30
2023/08/22 06:49:51;;;;;;;0.20;0.20;;;30.60;61.60;;;31.27;45.91;95327.88;4992633;28;20251;-29
2023/08/22 06:52:19;;;;;;;0.28;0.28;;;30.60;61.60;;;31.27;46.38;95325.16;4993433;28;20220;-32
2023/08/22 06:54:46;;;;;;;0.30;0.30;;;30.60;61.60;;;31.29;46.43;95322.97;4992933;28;20625;-31
2023/08/22 06:57:13;;;;;;;0.30;0.30;;;30.60;61.60;;;31.29;45.84;95326.44;4993056;28;20711;-31
2023/08/22 06:59:40;;;;;;;0.30;0.30;;;30.60;61.60;;;31.30;45.80;95329.97;4993006;28;20219;-32
2023/08/22 07:02:08;;;;;;;0.30;0.30;;;30.60;61.60;;;31.31;46.07;95328.88;4993030;28;20194;-31
2023/08/22 07:04:35;;;;;;;0.32;0.32;;;30.70;61.70;;;31.32;46.17;95329.66;4993234;28;20235;-31
2023/08/22 07:07:02;;;;;;;0.32;0.32;;;30.70;61.70;;;31.33;46.11;95329.34;4993094;28;20226;-31
2023/08/22 07:09:29;;;;;;;0.30;0.30;;;30.70;61.70;;;31.33;45.85;95328.53;4992935;28;20642;-31
2023/08/22 07:11:56;;;;;;;0.38;0.38;;;30.70;61.70;;;31.34;46.06;95325.50;4992874;28;20212;-30
2023/08/22 07:14:23;;;;;;;0.30;0.30;;;30.70;61.80;;;31.35;46.10;95324.41;4992858;28;20193;-30
2023/08/22 07:16:51;;;;;;;0.20;0.20;;;30.70;61.80;;;31.36;46.15;95320.59;5007799;28;20309;-30
2023/08/22 07:19:19;;;;;;;0.40;0.40;;;30.70;61.80;;;31.34;46.22;95314.66;4992704;28;20756;-30
2023/08/22 07:22:05;;;;;;;0.40;0.40;;;30.70;61.80;;;31.38;45.81;95336.53;4992825;28;20616;-29
2023/08/22 07:24:32;;;;;;;0.32;0.32;;;30.70;61.70;;;31.39;46.53;95327.28;4992732;28;20218;-30
2023/08/22 07:26:59;;;;;;;0.20;0.20;;;30.70;61.70;;;31.39;45.99;95319.94;4991987;28;20219;-31
2023/08/22 07:29:26;;;;;;;0.20;0.20;;;30.70;62.80;;;31.41;46.33;95320.44;4992697;28;20283;-30
2023/08/22 07:31:59;;;;;;;0.35;0.35;;;30.70;61.80;;;31.43;46.37;95314.69;4992885;28;20265;-30
2023/08/22 07:34:26;;;;;;;0.20;0.20;;;30.70;61.80;;;31.41;45.95;95315.00;4993216;28;20276;-30
2023/08/22 07:36:54;;;;;;;0.30;0.30;;;30.80;61.90;;;31.42;46.39;95310.38;4992777;28;20207;-29
2023/08/22 07:39:21;;;;;;;0.20;0.20;;;30.80;61.80;;;31.43;46.39;95312.78;4992802;28;20714;-30
2023/08/22 07:41:48;;;;;;;0.30;0.30;;;30.80;61.90;;;31.45;45.80;95310.53;4992803;28;20203;-30
2023/08/22 07:44:15;;;;;;;0.30;0.30;;;30.80;61.90;;;31.45;46.19;95304.34;4993025;28;20253;-33
2023/08/22 07:46:42;;;;;;;0.30;0.30;;;30.70;61.80;;;31.46;46.19;95312.16;4992364;28;20196;-32
2023/08/22 07:49:10;;;;;;;0.30;0.30;;;30.80;61.90;;;31.46;46.51;95306.72;4992168;28;20203;-31
2023/08/22 07:51:37;;;;;;;0.30;0.30;;;30.80;61.90;;;31.48;45.98;95302.91;4992413;28;20202;-32
2023/08/22 07:54:05;;;;;;;0.20;0.20;;;30.80;61.90;;;31.49;46.01;95301.78;4992937;28;20205;-31
2023/08/22 07:56:34;;;;;;;0.30;0.30;;;30.80;61.90;;;31.50;46.01;95301.47;4992261;28;20200;-30
2023/08/22 07:59:01;;;;;;;0.30;0.30;;;30.80;61.80;;;31.50;46.59;95301.47;4992797;28;20645;-34
2023/08/22 08:01:28;;;;;;;0.30;0.30;;;30.80;61.80;;;31.52;46.25;95304.66;5010294;28;20214;-31
2023/08/22 08:03:55;;;;;;;0.20;0.20;;;30.80;61.90;;;31.53;46.20;95308.16;5011031;28;20302;-31
2023/08/22 08:06:24;;;;;;;0.20;0.20;;;30.80;61.80;;;31.53;45.97;95300.84;4995494;28;20204;-31
2023/08/22 08:08:51;;;;;;;0.20;0.20;;;30.80;61.80;;;31.55;46.67;95306.72;4995624;28;20204;-31
2023/08/22 08:11:19;;;;;;;0.30;0.30;;;30.80;61.80;;;31.56;45.82;95304.84;4995875;28;20668;-30
2023/08/22 08:13:46;;;;;;;0.30;0.30;;;30.90;61.80;;;31.57;46.17;95303.72;4995532;28;20534;-32
2023/08/22 08:16:13;;;;;;;0.30;0.30;;;30.90;61.80;;;31.57;46.70;95301.78;4995277;28;20329;-31
2023/08/22 08:18:53;;;;;;;0.30;0.30;;;30.90;61.80;;;31.58;45.91;95300.69;4995699;28;20544;-31
2023/08/22 08:21:20;;;;;;;0.30;0.30;;;30.90;61.80;;;31.61;46.74;95299.25;4995734;28;20250;-31
2023/08/22 08:23:48;;;;;;;0.30;0.30;;;30.90;61.90;;;31.61;46.14;95300.03;4995690;28;20591;-30
2023/08/22 08:26:15;;;;;;;0.30;0.30;;;30.90;61.80;;;31.62;46.21;95295.44;4995257;28;20261;-30
2023/08/22 08:28:42;;;;;;;0.40;0.40;;;30.90;61.80;;;31.64;46.17;95297.81;4995600;28;20537;-30
2023/08/22 08:31:10;;;;;;;0.30;0.30;;;30.90;61.80;;;31.65;46.01;95294.81;5010628;28;20207;-30
2023/08/22 08:33:37;;;;;;;0.30;0.30;;;30.90;61.80;;;31.65;46.57;95292.09;4995222;28;20587;-31
2023/08/22 08:36:05;;;;;;;0.30;0.30;;;31.00;61.90;;;31.67;46.40;95287.16;4995316;28;20707;-30
2023/08/22 08:38:32;;;;;;;0.30;0.30;;;31.00;61.90;;;31.68;46.70;95294.19;4994436;28;20308;-30
2023/08/22 08:41:03;;;;;;;0.30;0.30;;;30.90;61.80;;;31.68;46.43;95296.91;4995155;28;20232;-30
2023/08/22 08:43:34;;;;;;;0.30;0.30;;;31.00;61.90;;;31.69;46.36;95290.34;4995175;28;20258;-29
2023/08/22 08:46:03;;;;;;;0.40;0.40;;;31.00;62.00;;;31.71;46.48;95290.03;4994956;28;20260;-29
2023/08/22 08:48:32;;;;;;;0.30;0.30;;;31.00;61.80;;;31.73;46.59;95291.31;5010508;28;20213;-29
2023/08/22 08:51:02;;;;;;;0.30;0.30;;;31.00;61.90;;;31.75;45.95;95293.69;4995271;28;20578;-29
2023/08/22 08:53:32;;;;;;;0.30;0.30;;;31.00;61.90;;;31.75;46.42;95297.22;4994385;28;20213;-33
2023/08/22 08:55:59;;;;;;;0.30;0.30;;;31.00;61.90;;;31.76;46.09;95292.59;4995027;28;20562;-31
2023/08/22 08:58:26;;;;;;;0.30;0.30;;;31.00;61.90;;;31.77;46.44;95289.56;5010116;28;20215;-31
2023/08/22 09:00:54;;;;;;;0.30;0.30;;;31.10;61.90;;;31.80;46.57;95287.31;4995134;28;20284;-29
2023/08/22 09:03:21;;;;;;;0.28;0.28;;;31.10;62.00;;;31.81;46.55;95281.59;4994822;28;20628;-30
2023/08/22 09:05:51;;;;;;;0.30;0.30;;;31.10;62.00;;;31.82;46.04;95287.81;4994674;28;20275;-31
2023/08/22 09:08:20;;;;;;;0.30;0.30;;;31.10;62.00;;;31.83;46.32;95292.13;4995008;28;20212;-33
2023/08/22 09:10:52;;;;;;;0.30;0.30;;;31.10;62.00;;;31.85;46.54;95289.88;4994709;28;20257;-29
2023/08/22 09:13:29;;;;;;;0.30;0.30;;;31.10;61.90;;;31.84;46.11;95278.22;4994316;28;20217;-29
2023/08/22 09:16:16;;;;;;;0.30;0.30;;;31.10;62.00;;;31.86;46.45;95289.56;4993821;28;20225;-30
2023/08/22 09:18:43;;;;;;;0.25;0.25;;;31.10;62.00;;;31.87;46.08;95285.75;4994541;28;20659;-29
2023/08/22 09:21:11;;;;;;;0.30;0.30;;;31.10;61.90;;;31.88;46.25;95281.88;4994731;28;20187;-31
2023/08/22 09:23:42;;;;;;;0.30;0.30;;;31.20;62.00;;;31.90;46.06;95284.31;4994517;28;20195;-30
2023/08/22 09:26:12;;;;;;;0.25;0.25;;;31.20;62.00;;;31.92;46.07;95285.56;4994730;28;20288;-31
2023/08/22 09:28:40;;;;;;;0.30;0.30;;;31.20;62.00;;;31.95;46.49;95291.50;4994462;28;20199;-30
2023/08/22 09:31:07;;;;;;;0.20;0.20;;;31.20;61.90;;;31.95;46.20;95280.63;4994587;28;20294;-29
2023/08/22 09:33:45;;;;;;;0.30;0.30;;;31.20;62.00;;;31.97;46.40;95283.81;4994356;28;20639;-30
2023/08/22 09:36:17;;;;;;;0.28;0.28;;;31.20;62.00;;;31.95;46.19;95281.41;4994420;28;20744;-30
2023/08/22 09:38:53;;;;;;;0.30;0.30;;;31.30;62.10;;;31.98;46.21;95278.06;4994642;28;20229;-32
2023/08/22 09:41:27;;;;;;;0.30;0.30;;;31.30;62.00;;;32.00;46.37;95280.47;4994579;28;20176;-29
2023/08/22 09:44:02;;;;;;;0.20;0.20;;;31.30;62.00;;;32.00;46.48;95272.31;4993446;28;20205;-29
2023/08/22 09:46:30;;;;;;;0.30;0.30;;;31.30;62.00;;;32.03;46.01;95277.09;4994226;28;20269;-31
2023/08/22 09:49:01;;;;;;;0.22;0.22;;;31.30;62.10;;;32.03;46.34;95275.19;4994350;28;20254;-29
2023/08/22 09:51:28;;;;;;;0.30;0.30;;;31.30;62.00;;;32.05;46.40;95275.66;4994966;28;20508;-33
2023/08/22 09:54:03;;;;;;;0.22;0.22;;;31.30;62.00;;;32.07;45.90;95262.56;4993223;28;20284;-30
2023/08/22 09:56:32;;;;;;;0.40;0.40;;;31.30;62.10;;;32.07;45.96;95265.28;4994295;28;20195;-30
2023/08/22 09:59:02;;;;;;;0.30;0.30;;;31.30;62.00;;;32.10;46.29;95255.69;4994184;28;20267;-29
2023/08/22 10:01:33;;;;;;;0.30;0.30;;;31.30;62.00;;;32.11;46.58;95253.81;4993926;28;20220;-29
2023/08/22 10:04:05;;;;;;;0.30;0.30;;;31.30;61.90;;;32.13;46.00;95251.53;4994510;28;20267;-29
2023/08/22 10:06:35;;;;;;;0.30;0.30;;;31.40;62.10;;;32.14;46.19;95253.97;4993723;28;20199;-31
2023/08/22 10:09:10;;;;;;;0.32;0.32;;;31.40;62.00;;;32.16;46.25;95253.63;4993848;28;20186;-31
2023/08/22 10:11:47;;;;;;;0.30;0.30;;;31.40;62.00;;;32.17;46.32;95255.22;4992996;28;20249;-30
2023/08/22 10:14:23;;;;;;;0.40;0.40;;;31.40;62.10;;;32.19;46.54;95242.94;4993947;28;20196;-30
2023/08/22 10:16:51;;;;;;;0.30;0.30;;;31.40;63.00;;;32.21;46.27;95239.91;5009024;28;20241;-30
2023/08/22 10:19:20;;;;;;;0.30;0.30;;;31.40;62.10;;;32.23;46.42;95235.75;4993596;28;20329;-31
2023/08/22 10:21:47;;;;;;;0.40;0.40;;;31.50;62.00;;;32.24;45.88;95239.28;4993366;28;20193;-31
2023/08/22 10:24:29;;;;;;;0.30;0.30;;;31.50;62.00;;;32.24;45.97;95239.28;4992437;28;20196;-29
2023/08/22 10:27:09;;;;;;;0.30;0.30;;;31.40;61.90;;;32.27;45.99;95241.34;4993415;28;20266;-31